sensor_id;sensor_type;location;lat;lon;timestamp;P1;durP1;ratioP1;P2;durP2;ratioP2
3547;SDS011;1788;49.400;11.092;2023-03-14T00:01:54;0.67;;;0.57;;
3547;SDS011;1788;49.400;11.092;2023-03-14T00:04:21;0.70;;;0.60;;
3547;SDS011;1788;49.400;11.092;2023-03-14T00:06:48;0.93;;;0.57;;
3547;SDS011;1788;49.400;11.092;2023-03-14T00:09:15;0.70;;;0.60;;
3547;SDS011;1788;49.400;11.092;2023-03-14T00:11:41;0.53;;;0.40;;
3547;SDS011;1788;49.400;11.092;2023-03-14T00:14:07;2.00;;;0.70;;
3547;SDS011;1788;49.400;11.092;2023-03-14T00:16:34;0.80;;;0.70;;
3547;SDS011;1788;49.400;11.092;2023-03-14T00:19:01;1.50;;;0.90;;
3547;SDS011;1788;49.400;11.092;2023-03-14T00:21:27;1.07;;;0.97;;
3547;SDS011;1788;49.400;11.092;2023-03-14T00:23:55;0.50;;;0.40;;
3547;SDS011;1788;49.400;11.092;2023-03-14T00:26:21;0.60;;;0.50;;
3547;SDS011;1788;49.400;11.092;2023-03-14T00:28:51;0.60;;;0.50;;
3547;SDS011;1788;49.400;11.092;2023-03-14T00:31:15;1.03;;;0.77;;
3547;SDS011;1788;49.400;11.092;2023-03-14T00:33:42;1.80;;;0.63;;
3547;SDS011;1788;49.400;11.092;2023-03-14T00:36:09;0.77;;;0.67;;
3547;SDS011;1788;49.400;11.092;2023-03-14T00:38:36;0.53;;;0.50;;
3547;SDS011;1788;49.400;11.092;2023-03-14T00:41:03;0.50;;;0.40;;
3547;SDS011;1788;49.400;11.092;2023-03-14T00:43:29;1.00;;;0.90;;
3547;SDS011;1788;49.400;11.092;2023-03-14T00:45:55;0.67;;;0.53;;
3547;SDS011;1788;49.400;11.092;2023-03-14T00:48:22;0.40;;;0.40;;
3547;SDS011;1788;49.400;11.092;2023-03-14T00:50:49;0.67;;;0.57;;
3547;SDS011;1788;49.400;11.092;2023-03-14T00:53:16;0.50;;;0.40;;
3547;SDS011;1788;49.400;11.092;2023-03-14T00:55:43;0.40;;;0.30;;
3547;SDS011;1788;49.400;11.092;2023-03-14T00:58:09;0.50;;;0.40;;
3547;SDS011;1788;49.400;11.092;2023-03-14T01:00:36;0.70;;;0.60;;
3547;SDS011;1788;49.400;11.092;2023-03-14T01:03:03;0.60;;;0.50;;
3547;SDS011;1788;49.400;11.092;2023-03-14T01:05:30;0.57;;;0.47;;
3547;SDS011;1788;49.400;11.092;2023-03-14T01:07:57;0.50;;;0.40;;
3547;SDS011;1788;49.400;11.092;2023-03-14T01:10:23;0.50;;;0.40;;
3547;SDS011;1788;49.400;11.092;2023-03-14T01:12:50;0.43;;;0.33;;
3547;SDS011;1788;49.400;11.092;2023-03-14T01:15:16;0.63;;;0.53;;
3547;SDS011;1788;49.400;11.092;2023-03-14T01:17:44;1.20;;;0.30;;
3547;SDS011;1788;49.400;11.092;2023-03-14T01:20:11;0.40;;;0.30;;
3547;SDS011;1788;49.400;11.092;2023-03-14T01:22:37;0.60;;;0.50;;
3547;SDS011;1788;49.400;11.092;2023-03-14T01:25:04;0.43;;;0.33;;
3547;SDS011;1788;49.400;11.092;2023-03-14T01:27:30;0.40;;;0.30;;
3547;SDS011;1788;49.400;11.092;2023-03-14T01:29:58;0.43;;;0.33;;
3547;SDS011;1788;49.400;11.092;2023-03-14T01:32:24;0.67;;;0.40;;
3547;SDS011;1788;49.400;11.092;2023-03-14T01:34:51;0.40;;;0.30;;
3547;SDS011;1788;49.400;11.092;2023-03-14T01:37:18;0.70;;;0.60;;
3547;SDS011;1788;49.400;11.092;2023-03-14T01:39:46;0.40;;;0.30;;
3547;SDS011;1788;49.400;11.092;2023-03-14T01:42:11;0.30;;;0.30;;
3547;SDS011;1788;49.400;11.092;2023-03-14T01:47:05;0.40;;;0.30;;
3547;SDS011;1788;49.400;11.092;2023-03-14T01:49:32;0.40;;;0.30;;
3547;SDS011;1788;49.400;11.092;2023-03-14T01:51:59;1.00;;;0.60;;
3547;SDS011;1788;49.400;11.092;2023-03-14T01:59:18;0.77;;;0.67;;
3547;SDS011;1788;49.400;11.092;2023-03-14T02:01:45;0.40;;;0.30;;
3547;SDS011;1788;49.400;11.092;2023-03-14T02:04:12;0.50;;;0.40;;
3547;SDS011;1788;49.400;11.092;2023-03-14T02:09:05;0.63;;;0.57;;
3547;SDS011;1788;49.400;11.092;2023-03-14T02:11:31;0.53;;;0.43;;
3547;SDS011;1788;49.400;11.092;2023-03-14T02:13:58;0.30;;;0.20;;
3547;SDS011;1788;49.400;11.092;2023-03-14T02:16:26;0.60;;;0.50;;
3547;SDS011;1788;49.400;11.092;2023-03-14T02:18:52;0.40;;;0.30;;
3547;SDS011;1788;49.400;11.092;2023-03-14T02:28:39;0.50;;;0.40;;
3547;SDS011;1788;49.400;11.092;2023-03-14T02:31:06;0.60;;;0.50;;
3547;SDS011;1788;49.400;11.092;2023-03-14T02:33:33;0.40;;;0.30;;
3547;SDS011;1788;49.400;11.092;2023-03-14T02:36:00;0.50;;;0.40;;
3547;SDS011;1788;49.400;11.092;2023-03-14T02:38:28;0.50;;;0.40;;
3547;SDS011;1788;49.400;11.092;2023-03-14T02:40:53;0.60;;;0.50;;
3547;SDS011;1788;49.400;11.092;2023-03-14T02:43:20;0.40;;;0.30;;
3547;SDS011;1788;49.400;11.092;2023-03-14T02:45:47;0.50;;;0.40;;
3547;SDS011;1788;49.400;11.092;2023-03-14T02:50:40;0.40;;;0.37;;
3547;SDS011;1788;49.400;11.092;2023-03-14T02:53:07;0.40;;;0.30;;
3547;SDS011;1788;49.400;11.092;2023-03-14T02:55:33;0.40;;;0.30;;
3547;SDS011;1788;49.400;11.092;2023-03-14T02:58:00;0.50;;;0.40;;
3547;SDS011;1788;49.400;11.092;2023-03-14T03:00:27;0.47;;;0.37;;
3547;SDS011;1788;49.400;11.092;2023-03-14T03:02:53;0.40;;;0.30;;
3547;SDS011;1788;49.400;11.092;2023-03-14T03:05:20;0.40;;;0.30;;
3547;SDS011;1788;49.400;11.092;2023-03-14T03:07:46;0.67;;;0.33;;
3547;SDS011;1788;49.400;11.092;2023-03-14T03:10:13;0.60;;;0.50;;
3547;SDS011;1788;49.400;11.092;2023-03-14T03:12:40;0.50;;;0.40;;
3547;SDS011;1788;49.400;11.092;2023-03-14T03:15:06;0.87;;;0.53;;
3547;SDS011;1788;49.400;11.092;2023-03-14T03:17:33;0.70;;;0.53;;
3547;SDS011;1788;49.400;11.092;2023-03-14T03:19:59;0.40;;;0.30;;
3547;SDS011;1788;49.400;11.092;2023-03-14T03:22:26;0.50;;;0.40;;
3547;SDS011;1788;49.400;11.092;2023-03-14T03:24:53;0.43;;;0.40;;
3547;SDS011;1788;49.400;11.092;2023-03-14T03:27:19;0.50;;;0.40;;
3547;SDS011;1788;49.400;11.092;2023-03-14T03:29:47;0.50;;;0.40;;
3547;SDS011;1788;49.400;11.092;2023-03-14T03:32:13;0.40;;;0.30;;
3547;SDS011;1788;49.400;11.092;2023-03-14T03:34:41;0.40;;;0.30;;
3547;SDS011;1788;49.400;11.092;2023-03-14T03:37:07;0.50;;;0.43;;
3547;SDS011;1788;49.400;11.092;2023-03-14T03:39:34;0.50;;;0.40;;
3547;SDS011;1788;49.400;11.092;2023-03-14T03:42:01;0.50;;;0.40;;
3547;SDS011;1788;49.400;11.092;2023-03-14T03:44:28;1.23;;;0.40;;
3547;SDS011;1788;49.400;11.092;2023-03-14T03:46:54;0.60;;;0.50;;
3547;SDS011;1788;49.400;11.092;2023-03-14T03:49:21;0.40;;;0.30;;
3547;SDS011;1788;49.400;11.092;2023-03-14T03:51:48;0.67;;;0.53;;
3547;SDS011;1788;49.400;11.092;2023-03-14T03:54:14;1.00;;;0.43;;
3547;SDS011;1788;49.400;11.092;2023-03-14T03:56:41;0.40;;;0.40;;
3547;SDS011;1788;49.400;11.092;2023-03-14T03:59:07;0.53;;;0.43;;
3547;SDS011;1788;49.400;11.092;2023-03-14T04:01:34;0.57;;;0.47;;
3547;SDS011;1788;49.400;11.092;2023-03-14T04:04:01;0.50;;;0.40;;
3547;SDS011;1788;49.400;11.092;2023-03-14T04:06:27;0.50;;;0.40;;
3547;SDS011;1788;49.400;11.092;2023-03-14T04:08:54;0.57;;;0.47;;
3547;SDS011;1788;49.400;11.092;2023-03-14T04:11:21;0.73;;;0.47;;
3547;SDS011;1788;49.400;11.092;2023-03-14T04:13:48;1.43;;;0.50;;
3547;SDS011;1788;49.400;11.092;2023-03-14T04:16:16;0.40;;;0.30;;
3547;SDS011;1788;49.400;11.092;2023-03-14T04:18:42;0.90;;;0.50;;
3547;SDS011;1788;49.400;11.092;2023-03-14T04:21:08;0.40;;;0.30;;
3547;SDS011;1788;49.400;11.092;2023-03-14T04:23:35;1.23;;;0.70;;
3547;SDS011;1788;49.400;11.092;2023-03-14T04:26:02;0.50;;;0.40;;
3547;SDS011;1788;49.400;11.092;2023-03-14T04:28:28;0.63;;;0.40;;
3547;SDS011;1788;49.400;11.092;2023-03-14T04:30:55;0.70;;;0.60;;
3547;SDS011;1788;49.400;11.092;2023-03-14T04:33:21;0.40;;;0.30;;
3547;SDS011;1788;49.400;11.092;2023-03-14T04:35:48;0.60;;;0.50;;
3547;SDS011;1788;49.400;11.092;2023-03-14T04:38:15;0.47;;;0.37;;
3547;SDS011;1788;49.400;11.092;2023-03-14T04:40:43;0.50;;;0.40;;
3547;SDS011;1788;49.400;11.092;2023-03-14T04:43:09;0.57;;;0.47;;
3547;SDS011;1788;49.400;11.092;2023-03-14T04:45:36;0.60;;;0.50;;
3547;SDS011;1788;49.400;11.092;2023-03-14T04:48:03;0.50;;;0.40;;
3547;SDS011;1788;49.400;11.092;2023-03-14T04:50:30;0.73;;;0.63;;
3547;SDS011;1788;49.400;11.092;2023-03-14T04:52:56;0.40;;;0.30;;
3547;SDS011;1788;49.400;11.092;2023-03-14T04:55:23;0.57;;;0.50;;
3547;SDS011;1788;49.400;11.092;2023-03-14T04:57:50;0.50;;;0.40;;
3547;SDS011;1788;49.400;11.092;2023-03-14T05:00:17;0.60;;;0.50;;
3547;SDS011;1788;49.400;11.092;2023-03-14T05:02:44;0.60;;;0.50;;
3547;SDS011;1788;49.400;11.092;2023-03-14T05:05:11;0.50;;;0.40;;
3547;SDS011;1788;49.400;11.092;2023-03-14T05:07:38;0.60;;;0.50;;
3547;SDS011;1788;49.400;11.092;2023-03-14T05:10:04;0.53;;;0.43;;
3547;SDS011;1788;49.400;11.092;2023-03-14T05:12:31;0.60;;;0.50;;
3547;SDS011;1788;49.400;11.092;2023-03-14T05:14:57;0.70;;;0.60;;
3547;SDS011;1788;49.400;11.092;2023-03-14T05:17:25;0.50;;;0.40;;
3547;SDS011;1788;49.400;11.092;2023-03-14T05:19:51;0.60;;;0.50;;
3547;SDS011;1788;49.400;11.092;2023-03-14T05:22:19;0.53;;;0.43;;
3547;SDS011;1788;49.400;11.092;2023-03-14T05:24:45;0.60;;;0.50;;
3547;SDS011;1788;49.400;11.092;2023-03-14T05:27:13;0.60;;;0.50;;
3547;SDS011;1788;49.400;11.092;2023-03-14T05:29:39;0.60;;;0.50;;
3547;SDS011;1788;49.400;11.092;2023-03-14T05:32:06;0.60;;;0.50;;
3547;SDS011;1788;49.400;11.092;2023-03-14T05:34:32;1.67;;;1.13;;
3547;SDS011;1788;49.400;11.092;2023-03-14T05:37:00;0.73;;;0.63;;
3547;SDS011;1788;49.400;11.092;2023-03-14T05:39:26;0.90;;;0.80;;
3547;SDS011;1788;49.400;11.092;2023-03-14T05:41:53;0.73;;;0.63;;
3547;SDS011;1788;49.400;11.092;2023-03-14T05:44:20;0.80;;;0.70;;
3547;SDS011;1788;49.400;11.092;2023-03-14T05:46:46;1.90;;;0.90;;
3547;SDS011;1788;49.400;11.092;2023-03-14T05:49:14;0.80;;;0.70;;
3547;SDS011;1788;49.400;11.092;2023-03-14T05:51:40;0.70;;;0.60;;
3547;SDS011;1788;49.400;11.092;2023-03-14T05:54:08;1.13;;;0.90;;
3547;SDS011;1788;49.400;11.092;2023-03-14T05:56:34;0.90;;;0.87;;
3547;SDS011;1788;49.400;11.092;2023-03-14T05:59:01;0.97;;;0.87;;
3547;SDS011;1788;49.400;11.092;2023-03-14T06:01:27;0.77;;;0.60;;
3547;SDS011;1788;49.400;11.092;2023-03-14T06:03:54;0.80;;;0.70;;
3547;SDS011;1788;49.400;11.092;2023-03-14T06:06:21;0.87;;;0.77;;
3547;SDS011;1788;49.400;11.092;2023-03-14T06:08:48;0.90;;;0.80;;
3547;SDS011;1788;49.400;11.092;2023-03-14T06:11:15;0.80;;;0.70;;
3547;SDS011;1788;49.400;11.092;2023-03-14T06:13:42;1.73;;;0.80;;
3547;SDS011;1788;49.400;11.092;2023-03-14T06:16:09;2.93;;;1.00;;
3547;SDS011;1788;49.400;11.092;2023-03-14T06:18:35;0.80;;;0.70;;
3547;SDS011;1788;49.400;11.092;2023-03-14T06:21:02;1.03;;;0.73;;
3547;SDS011;1788;49.400;11.092;2023-03-14T06:23:28;1.50;;;1.10;;
3547;SDS011;1788;49.400;11.092;2023-03-14T06:25:56;0.90;;;0.80;;
3547;SDS011;1788;49.400;11.092;2023-03-14T06:28:22;1.33;;;1.23;;
3547;SDS011;1788;49.400;11.092;2023-03-14T06:30:49;1.17;;;1.07;;
3547;SDS011;1788;49.400;11.092;2023-03-14T06:33:16;1.00;;;0.90;;
3547;SDS011;1788;49.400;11.092;2023-03-14T06:35:42;0.97;;;0.87;;
3547;SDS011;1788;49.400;11.092;2023-03-14T06:38:10;1.07;;;0.97;;
3547;SDS011;1788;49.400;11.092;2023-03-14T06:40:36;1.60;;;0.83;;
3547;SDS011;1788;49.400;11.092;2023-03-14T06:43:04;1.07;;;1.00;;
3547;SDS011;1788;49.400;11.092;2023-03-14T06:45:30;1.00;;;0.90;;
3547;SDS011;1788;49.400;11.092;2023-03-14T06:47:57;0.90;;;0.80;;
3547;SDS011;1788;49.400;11.092;2023-03-14T06:50:24;1.00;;;0.90;;
3547;SDS011;1788;49.400;11.092;2023-03-14T06:52:50;1.33;;;0.97;;
3547;SDS011;1788;49.400;11.092;2023-03-14T06:55:18;0.90;;;0.80;;
3547;SDS011;1788;49.400;11.092;2023-03-14T06:57:45;1.10;;;1.00;;
3547;SDS011;1788;49.400;11.092;2023-03-14T07:00:12;1.23;;;1.13;;
3547;SDS011;1788;49.400;11.092;2023-03-14T07:02:38;1.30;;;1.20;;
3547;SDS011;1788;49.400;11.092;2023-03-14T07:05:05;1.07;;;0.97;;
3547;SDS011;1788;49.400;11.092;2023-03-14T07:07:31;1.17;;;1.10;;
3547;SDS011;1788;49.400;11.092;2023-03-14T07:09:58;1.03;;;0.93;;
3547;SDS011;1788;49.400;11.092;2023-03-14T07:12:25;1.13;;;1.03;;
3547;SDS011;1788;49.400;11.092;2023-03-14T07:14:52;1.20;;;1.10;;
3547;SDS011;1788;49.400;11.092;2023-03-14T07:17:19;1.50;;;1.20;;
3547;SDS011;1788;49.400;11.092;2023-03-14T07:19:46;1.60;;;1.23;;
3547;SDS011;1788;49.400;11.092;2023-03-14T07:22:12;1.70;;;1.60;;
3547;SDS011;1788;49.400;11.092;2023-03-14T07:24:39;1.47;;;1.40;;
3547;SDS011;1788;49.400;11.092;2023-03-14T07:27:06;1.40;;;1.30;;
3547;SDS011;1788;49.400;11.092;2023-03-14T07:29:33;1.73;;;1.53;;
3547;SDS011;1788;49.400;11.092;2023-03-14T07:32:00;1.40;;;1.30;;
3547;SDS011;1788;49.400;11.092;2023-03-14T07:34:26;1.57;;;1.47;;
3547;SDS011;1788;49.400;11.092;2023-03-14T07:36:53;1.87;;;1.20;;
3547;SDS011;1788;49.400;11.092;2023-03-14T07:39:19;1.67;;;1.00;;
3547;SDS011;1788;49.400;11.092;2023-03-14T07:41:46;1.77;;;1.33;;
3547;SDS011;1788;49.400;11.092;2023-03-14T07:44:13;1.30;;;1.20;;
3547;SDS011;1788;49.400;11.092;2023-03-14T07:46:39;1.23;;;1.13;;
3547;SDS011;1788;49.400;11.092;2023-03-14T07:49:06;1.00;;;0.90;;
3547;SDS011;1788;49.400;11.092;2023-03-14T07:51:33;1.23;;;1.13;;
3547;SDS011;1788;49.400;11.092;2023-03-14T07:54:00;0.90;;;0.80;;
3547;SDS011;1788;49.400;11.092;2023-03-14T07:56:27;1.27;;;1.07;;
3547;SDS011;1788;49.400;11.092;2023-03-14T07:58:54;2.10;;;1.30;;
3547;SDS011;1788;49.400;11.092;2023-03-14T08:01:20;1.50;;;0.90;;
3547;SDS011;1788;49.400;11.092;2023-03-14T08:03:47;1.50;;;1.20;;
3547;SDS011;1788;49.400;11.092;2023-03-14T08:06:14;2.10;;;1.30;;
3547;SDS011;1788;49.400;11.092;2023-03-14T08:08:41;1.10;;;1.00;;
3547;SDS011;1788;49.400;11.092;2023-03-14T08:11:08;1.20;;;1.10;;
3547;SDS011;1788;49.400;11.092;2023-03-14T08:13:35;0.77;;;0.67;;
3547;SDS011;1788;49.400;11.092;2023-03-14T08:16:02;1.23;;;1.13;;
3547;SDS011;1788;49.400;11.092;2023-03-14T08:18:28;0.90;;;0.80;;
3547;SDS011;1788;49.400;11.092;2023-03-14T08:20:55;0.97;;;0.87;;
3547;SDS011;1788;49.400;11.092;2023-03-14T08:23:22;0.90;;;0.80;;
3547;SDS011;1788;49.400;11.092;2023-03-14T08:25:49;0.90;;;0.80;;
3547;SDS011;1788;49.400;11.092;2023-03-14T08:28:16;1.03;;;0.90;;
3547;SDS011;1788;49.400;11.092;2023-03-14T08:30:42;0.83;;;0.73;;
3547;SDS011;1788;49.400;11.092;2023-03-14T08:33:10;0.90;;;0.80;;
3547;SDS011;1788;49.400;11.092;2023-03-14T08:38:03;1.63;;;0.93;;
3547;SDS011;1788;49.400;11.092;2023-03-14T08:40:29;0.73;;;0.67;;
3547;SDS011;1788;49.400;11.092;2023-03-14T08:42:56;0.60;;;0.50;;
3547;SDS011;1788;49.400;11.092;2023-03-14T08:45:23;0.77;;;0.67;;
3547;SDS011;1788;49.400;11.092;2023-03-14T08:47:50;0.77;;;0.70;;
3547;SDS011;1788;49.400;11.092;2023-03-14T08:50:17;0.60;;;0.50;;
3547;SDS011;1788;49.400;11.092;2023-03-14T08:52:44;1.00;;;0.90;;
3547;SDS011;1788;49.400;11.092;2023-03-14T08:55:11;0.87;;;0.83;;
3547;SDS011;1788;49.400;11.092;2023-03-14T08:57:38;1.60;;;0.80;;
3547;SDS011;1788;49.400;11.092;2023-03-14T09:00:05;0.63;;;0.57;;
3547;SDS011;1788;49.400;11.092;2023-03-14T09:02:31;1.13;;;1.03;;
3547;SDS011;1788;49.400;11.092;2023-03-14T09:04:58;0.73;;;0.63;;
3547;SDS011;1788;49.400;11.092;2023-03-14T09:07:25;2.37;;;0.60;;
3547;SDS011;1788;49.400;11.092;2023-03-14T09:09:52;0.87;;;0.70;;
3547;SDS011;1788;49.400;11.092;2023-03-14T09:12:19;1.03;;;0.70;;
3547;SDS011;1788;49.400;11.092;2023-03-14T09:14:46;0.90;;;0.80;;
3547;SDS011;1788;49.400;11.092;2023-03-14T09:17:12;0.73;;;0.63;;
3547;SDS011;1788;49.400;11.092;2023-03-14T09:19:39;1.00;;;0.90;;
3547;SDS011;1788;49.400;11.092;2023-03-14T09:22:06;1.17;;;0.90;;
3547;SDS011;1788;49.400;11.092;2023-03-14T09:24:32;1.03;;;0.93;;
3547;SDS011;1788;49.400;11.092;2023-03-14T09:26:59;2.23;;;0.70;;
3547;SDS011;1788;49.400;11.092;2023-03-14T09:29:25;0.73;;;0.63;;
3547;SDS011;1788;49.400;11.092;2023-03-14T09:31:52;1.60;;;0.60;;
3547;SDS011;1788;49.400;11.092;2023-03-14T09:34:19;0.67;;;0.57;;
3547;SDS011;1788;49.400;11.092;2023-03-14T09:36:46;2.27;;;0.97;;
3547;SDS011;1788;49.400;11.092;2023-03-14T09:39:13;1.07;;;0.97;;
3547;SDS011;1788;49.400;11.092;2023-03-14T09:41:41;0.87;;;0.63;;
3547;SDS011;1788;49.400;11.092;2023-03-14T09:46:34;0.93;;;0.70;;
3547;SDS011;1788;49.400;11.092;2023-03-14T09:49:02;0.73;;;0.63;;
3547;SDS011;1788;49.400;11.092;2023-03-14T09:51:28;0.60;;;0.50;;
3547;SDS011;1788;49.400;11.092;2023-03-14T09:53:56;1.17;;;1.07;;
3547;SDS011;1788;49.400;11.092;2023-03-14T09:56:23;1.10;;;0.70;;
3547;SDS011;1788;49.400;11.092;2023-03-14T10:01:17;1.20;;;0.60;;
3547;SDS011;1788;49.400;11.092;2023-03-14T10:03:43;0.40;;;0.30;;
3547;SDS011;1788;49.400;11.092;2023-03-14T10:06:11;1.43;;;0.50;;
3547;SDS011;1788;49.400;11.092;2023-03-14T10:08:38;0.60;;;0.50;;
3547;SDS011;1788;49.400;11.092;2023-03-14T10:11:03;0.77;;;0.67;;
3547;SDS011;1788;49.400;11.092;2023-03-14T10:13:30;0.93;;;0.83;;
3547;SDS011;1788;49.400;11.092;2023-03-14T10:18:23;1.43;;;0.97;;
3547;SDS011;1788;49.400;11.092;2023-03-14T10:21:01;1.00;;;0.73;;
3547;SDS011;1788;49.400;11.092;2023-03-14T10:23:19;1.10;;;1.00;;
3547;SDS011;1788;49.400;11.092;2023-03-14T10:25:44;1.70;;;0.90;;
3547;SDS011;1788;49.400;11.092;2023-03-14T10:35:30;2.37;;;1.20;;
3547;SDS011;1788;49.400;11.092;2023-03-14T10:37:58;0.80;;;0.70;;
3547;SDS011;1788;49.400;11.092;2023-03-14T10:40:25;1.17;;;0.90;;
3547;SDS011;1788;49.400;11.092;2023-03-14T10:42:50;0.80;;;0.70;;
3547;SDS011;1788;49.400;11.092;2023-03-14T10:47:48;0.80;;;0.70;;
3547;SDS011;1788;49.400;11.092;2023-03-14T10:52:37;1.03;;;0.60;;
3547;SDS011;1788;49.400;11.092;2023-03-14T10:55:10;0.63;;;0.53;;
3547;SDS011;1788;49.400;11.092;2023-03-14T10:57:30;1.43;;;0.70;;
3547;SDS011;1788;49.400;11.092;2023-03-14T10:59:57;0.73;;;0.60;;
3547;SDS011;1788;49.400;11.092;2023-03-14T11:07:21;1.20;;;1.10;;
3547;SDS011;1788;49.400;11.092;2023-03-14T11:09:47;0.80;;;0.70;;
3547;SDS011;1788;49.400;11.092;2023-03-14T11:14:40;1.37;;;0.83;;
3547;SDS011;1788;49.400;11.092;2023-03-14T11:17:10;0.70;;;0.60;;
3547;SDS011;1788;49.400;11.092;2023-03-14T11:24:33;0.80;;;0.73;;
3547;SDS011;1788;49.400;11.092;2023-03-14T11:31:46;1.57;;;1.00;;
3547;SDS011;1788;49.400;11.092;2023-03-14T11:44:00;0.70;;;0.60;;
3547;SDS011;1788;49.400;11.092;2023-03-14T11:56:16;0.77;;;0.33;;
3547;SDS011;1788;49.400;11.092;2023-03-14T11:58:40;0.67;;;0.50;;
3547;SDS011;1788;49.400;11.092;2023-03-14T12:01:08;0.53;;;0.40;;
3547;SDS011;1788;49.400;11.092;2023-03-14T12:10:55;0.30;;;0.20;;
3547;SDS011;1788;49.400;11.092;2023-03-14T12:13:21;1.23;;;0.70;;
3547;SDS011;1788;49.400;11.092;2023-03-14T12:15:49;0.43;;;0.40;;
3547;SDS011;1788;49.400;11.092;2023-03-14T12:20:42;0.40;;;0.30;;
3547;SDS011;1788;49.400;11.092;2023-03-14T12:23:10;0.43;;;0.40;;
3547;SDS011;1788;49.400;11.092;2023-03-14T12:25:36;0.47;;;0.43;;
3547;SDS011;1788;49.400;11.092;2023-03-14T12:28:04;0.33;;;0.23;;
3547;SDS011;1788;49.400;11.092;2023-03-14T12:30:30;0.40;;;0.30;;
3547;SDS011;1788;49.400;11.092;2023-03-14T12:37:49;0.87;;;0.40;;
3547;SDS011;1788;49.400;11.092;2023-03-14T12:40:19;0.50;;;0.40;;
3547;SDS011;1788;49.400;11.092;2023-03-14T12:42:45;0.60;;;0.50;;
3547;SDS011;1788;49.400;11.092;2023-03-14T12:47:41;0.57;;;0.40;;
3547;SDS011;1788;49.400;11.092;2023-03-14T13:04:47;0.97;;;0.77;;
3547;SDS011;1788;49.400;11.092;2023-03-14T13:07:13;0.50;;;0.40;;
3547;SDS011;1788;49.400;11.092;2023-03-14T13:14:32;0.60;;;0.50;;
3547;SDS011;1788;49.400;11.092;2023-03-14T13:17:00;0.60;;;0.50;;
3547;SDS011;1788;49.400;11.092;2023-03-14T13:19:27;1.23;;;0.40;;
3547;SDS011;1788;49.400;11.092;2023-03-14T13:21:59;0.93;;;0.90;;
3547;SDS011;1788;49.400;11.092;2023-03-14T13:26:47;1.13;;;1.03;;
3547;SDS011;1788;49.400;11.092;2023-03-14T13:31:43;0.70;;;0.60;;
3547;SDS011;1788;49.400;11.092;2023-03-14T13:34:09;1.20;;;1.10;;
3547;SDS011;1788;49.400;11.092;2023-03-14T13:36:35;1.03;;;0.93;;
3547;SDS011;1788;49.400;11.092;2023-03-14T13:39:01;3.83;;;1.87;;
3547;SDS011;1788;49.400;11.092;2023-03-14T13:41:27;2.60;;;1.57;;
3547;SDS011;1788;49.400;11.092;2023-03-14T13:46:22;2.47;;;1.33;;
3547;SDS011;1788;49.400;11.092;2023-03-14T13:51:16;1.20;;;1.10;;
3547;SDS011;1788;49.400;11.092;2023-03-14T13:53:43;1.67;;;1.57;;
3547;SDS011;1788;49.400;11.092;2023-03-14T13:56:09;0.90;;;0.80;;
3547;SDS011;1788;49.400;11.092;2023-03-14T13:58:35;1.20;;;1.10;;
3547;SDS011;1788;49.400;11.092;2023-03-14T14:05:56;0.87;;;0.77;;
3547;SDS011;1788;49.400;11.092;2023-03-14T14:08:22;1.47;;;0.70;;
3547;SDS011;1788;49.400;11.092;2023-03-14T14:10:49;1.33;;;0.80;;
3547;SDS011;1788;49.400;11.092;2023-03-14T14:13:17;2.57;;;1.17;;
3547;SDS011;1788;49.400;11.092;2023-03-14T14:15:43;2.13;;;1.40;;
3547;SDS011;1788;49.400;11.092;2023-03-14T14:18:11;0.70;;;0.60;;
3547;SDS011;1788;49.400;11.092;2023-03-14T14:23:04;0.60;;;0.50;;
3547;SDS011;1788;49.400;11.092;2023-03-14T14:25:30;0.57;;;0.53;;
3547;SDS011;1788;49.400;11.092;2023-03-14T14:27:56;1.53;;;0.90;;
3547;SDS011;1788;49.400;11.092;2023-03-14T14:32:50;0.70;;;0.60;;
3547;SDS011;1788;49.400;11.092;2023-03-14T14:37:43;0.80;;;0.70;;
3547;SDS011;1788;49.400;11.092;2023-03-14T14:40:16;1.00;;;0.90;;
3547;SDS011;1788;49.400;11.092;2023-03-14T14:42:39;0.77;;;0.67;;
3547;SDS011;1788;49.400;11.092;2023-03-14T14:47:30;0.90;;;0.80;;
3547;SDS011;1788;49.400;11.092;2023-03-14T14:49:58;0.87;;;0.77;;
3547;SDS011;1788;49.400;11.092;2023-03-14T14:54:52;1.00;;;0.90;;
3547;SDS011;1788;49.400;11.092;2023-03-14T14:57:18;1.30;;;0.90;;
3547;SDS011;1788;49.400;11.092;2023-03-14T14:59:43;0.80;;;0.70;;
3547;SDS011;1788;49.400;11.092;2023-03-14T15:04:37;1.00;;;0.90;;
3547;SDS011;1788;49.400;11.092;2023-03-14T15:07:05;1.63;;;1.53;;
3547;SDS011;1788;49.400;11.092;2023-03-14T15:09:31;1.10;;;1.00;;
3547;SDS011;1788;49.400;11.092;2023-03-14T15:11:58;1.30;;;1.20;;
3547;SDS011;1788;49.400;11.092;2023-03-14T15:14:24;1.20;;;1.10;;
3547;SDS011;1788;49.400;11.092;2023-03-14T15:16:51;1.23;;;1.13;;
3547;SDS011;1788;49.400;11.092;2023-03-14T15:21:45;1.93;;;1.40;;
3547;SDS011;1788;49.400;11.092;2023-03-14T15:24:12;1.70;;;1.60;;
3547;SDS011;1788;49.400;11.092;2023-03-14T15:26:39;1.30;;;1.20;;
3547;SDS011;1788;49.400;11.092;2023-03-14T15:29:06;1.67;;;1.57;;
3547;SDS011;1788;49.400;11.092;2023-03-14T15:31:32;1.50;;;1.40;;
3547;SDS011;1788;49.400;11.092;2023-03-14T15:33:59;1.63;;;1.50;;
3547;SDS011;1788;49.400;11.092;2023-03-14T15:36:27;2.73;;;2.23;;
3547;SDS011;1788;49.400;11.092;2023-03-14T15:38:52;1.83;;;1.73;;
3547;SDS011;1788;49.400;11.092;2023-03-14T15:41:19;2.27;;;1.93;;
3547;SDS011;1788;49.400;11.092;2023-03-14T15:43:45;2.17;;;1.57;;
3547;SDS011;1788;49.400;11.092;2023-03-14T15:46:12;1.60;;;1.50;;
3547;SDS011;1788;49.400;11.092;2023-03-14T15:48:38;1.60;;;1.50;;
3547;SDS011;1788;49.400;11.092;2023-03-14T15:51:05;2.83;;;1.70;;
3547;SDS011;1788;49.400;11.092;2023-03-14T15:53:32;1.77;;;1.67;;
3547;SDS011;1788;49.400;11.092;2023-03-14T15:55:59;1.50;;;1.30;;
3547;SDS011;1788;49.400;11.092;2023-03-14T15:58:26;2.03;;;1.63;;
3547;SDS011;1788;49.400;11.092;2023-03-14T16:00:53;1.70;;;1.60;;
3547;SDS011;1788;49.400;11.092;2023-03-14T16:03:20;1.37;;;1.20;;
3547;SDS011;1788;49.400;11.092;2023-03-14T16:05:47;1.73;;;1.70;;
3547;SDS011;1788;49.400;11.092;2023-03-14T16:08:14;1.33;;;1.20;;
3547;SDS011;1788;49.400;11.092;2023-03-14T16:10:40;1.23;;;1.13;;
3547;SDS011;1788;49.400;11.092;2023-03-14T16:13:07;2.80;;;2.60;;
3547;SDS011;1788;49.400;11.092;2023-03-14T16:15:34;1.60;;;1.27;;
3547;SDS011;1788;49.400;11.092;2023-03-14T16:18:00;1.10;;;1.00;;
3547;SDS011;1788;49.400;11.092;2023-03-14T16:20:27;2.00;;;1.57;;
3547;SDS011;1788;49.400;11.092;2023-03-14T16:22:53;1.90;;;1.20;;
3547;SDS011;1788;49.400;11.092;2023-03-14T16:25:20;1.80;;;1.53;;
3547;SDS011;1788;49.400;11.092;2023-03-14T16:27:47;1.03;;;0.93;;
3547;SDS011;1788;49.400;11.092;2023-03-14T16:30:14;1.43;;;1.30;;
3547;SDS011;1788;49.400;11.092;2023-03-14T16:32:41;1.20;;;1.10;;
3547;SDS011;1788;49.400;11.092;2023-03-14T16:35:07;1.53;;;1.43;;
3547;SDS011;1788;49.400;11.092;2023-03-14T16:37:34;1.50;;;1.40;;
3547;SDS011;1788;49.400;11.092;2023-03-14T16:40:00;2.70;;;1.30;;
3547;SDS011;1788;49.400;11.092;2023-03-14T16:42:27;1.47;;;1.10;;
3547;SDS011;1788;49.400;11.092;2023-03-14T16:44:54;1.30;;;1.20;;
3547;SDS011;1788;49.400;11.092;2023-03-14T16:47:20;1.13;;;1.03;;
3547;SDS011;1788;49.400;11.092;2023-03-14T16:49:47;3.20;;;1.77;;
3547;SDS011;1788;49.400;11.092;2023-03-14T16:52:13;2.47;;;2.27;;
3547;SDS011;1788;49.400;11.092;2023-03-14T16:54:40;2.80;;;2.60;;
3547;SDS011;1788;49.400;11.092;2023-03-14T16:57:07;2.67;;;1.83;;
3547;SDS011;1788;49.400;11.092;2023-03-14T16:59:34;4.03;;;1.50;;
3547;SDS011;1788;49.400;11.092;2023-03-14T17:02:01;1.57;;;1.47;;
3547;SDS011;1788;49.400;11.092;2023-03-14T17:04:27;1.43;;;1.33;;
3547;SDS011;1788;49.400;11.092;2023-03-14T17:06:54;1.30;;;1.20;;
3547;SDS011;1788;49.400;11.092;2023-03-14T17:09:20;1.60;;;1.50;;
3547;SDS011;1788;49.400;11.092;2023-03-14T17:11:47;1.93;;;1.20;;
3547;SDS011;1788;49.400;11.092;2023-03-14T17:14:14;1.80;;;1.60;;
3547;SDS011;1788;49.400;11.092;2023-03-14T17:16:40;1.13;;;1.07;;
3547;SDS011;1788;49.400;11.092;2023-03-14T17:19:08;1.77;;;1.70;;
3547;SDS011;1788;49.400;11.092;2023-03-14T17:21:35;1.97;;;1.87;;
3547;SDS011;1788;49.400;11.092;2023-03-14T17:24:07;2.20;;;2.03;;